Vulcan, West Virginia
Current Conditions -  °F | °C
As of 9:35 AM on Saturday 25 Oct 2014 (Local Time) from KPBX Reporting Station
Moderate Fog Moderate Fog  
Wind Chill: 38°   Ceiling: 100
Heat Index: 42°   Visibility: 0.5mi
Dew Point: 41°   Wind: 6mph
Humidity: 98%   Direction: 170°S
Pressure: 30.07"   Gusts: NA
Location:  37.55°N, 82.13°W
Report Text: KPBX 251335Z AUTO 17005KT 1/2SM FG OVC001 05/05 A3007 RMK AO2 VIS 1/4V5 T00540051
Loading
Personal Weather Stations






























Interactive Weather Map
Tropical Storm Tracking
New forecast layout! Learn more

10-Day Weather Forecast

Advertisements
Track Severe Weather on mobile